Time;durP1;ratioP1;P1;durP2;ratioP2;P2;SDS_P1;SDS_P2;PMS_P1;PMS_P2;Temp;Humidity;BMP_temperature;BMP_pressure;BME280_temperature;BME280_humidity;BME280_pressure;Samples;Min_cycle;Max_cycle;Signal;HPM_P1;HPM_P2
2021/10/02 00:33:37;;;;;;;1.50;1.40;;;8.70;99.90;;;;;;4981303;28;20400;-79
2021/10/02 00:45:47;;;;;;;1.40;1.30;;;8.60;99.90;;;;;;4929965;28;20414;-78
2021/10/02 00:48:31;;;;;;;1.60;1.50;;;8.50;99.90;;;;;;4988718;28;20434;-79
2021/10/02 00:51:16;;;;;;;1.73;1.63;;;8.50;99.90;;;;;;4977829;28;20411;-78
2021/10/02 00:54:00;;;;;;;1.60;1.50;;;8.50;99.90;;;;;;4997753;28;20570;-79
2021/10/02 00:56:44;;;;;;;1.50;1.40;;;8.40;99.90;;;;;;4992027;28;20446;-78
2021/10/02 00:59:30;;;;;;;1.90;1.58;;;8.40;99.90;;;;;;4991593;28;20516;-79
2021/10/02 01:02:25;;;;;;;1.60;1.50;;;8.40;99.90;;;;;;4976607;28;20470;-78
2021/10/02 01:05:38;;;;;;;1.70;1.60;;;8.30;99.90;;;;;;4991919;28;20409;-79
2021/10/02 01:09:00;;;;;;;1.48;1.38;;;8.20;99.90;;;;;;4999555;28;20461;-78
2021/10/02 01:12:02;;;;;;;1.77;1.38;;;8.20;99.90;;;;;;4932400;28;20765;-78
2021/10/02 01:14:56;;;;;;;1.40;1.30;;;8.10;99.90;;;;;;5018518;28;22776;-78
2021/10/02 01:17:51;;;;;;;1.63;1.52;;;8.10;99.90;;;;;;4975674;28;20435;-78
2021/10/02 01:20:59;;;;;;;1.27;1.27;;;8.10;99.90;;;;;;4987294;28;20396;-78
2021/10/02 01:23:55;;;;;;;1.55;1.45;;;8.10;99.90;;;;;;4977743;28;20403;-79
2021/10/02 01:27:09;;;;;;;2.35;1.80;;;8.00;99.90;;;;;;5018443;28;20400;-78
2021/10/02 01:29:54;;;;;;;1.70;1.60;;;8.00;99.90;;;;;;4982351;28;20404;-78
2021/10/02 01:32:49;;;;;;;1.60;1.50;;;8.00;99.90;;;;;;4975268;28;20527;-78
2021/10/02 01:48:15;;;;;;;1.52;1.42;;;7.80;99.90;;;;;;5005466;28;20495;-78
2021/10/02 01:51:00;;;;;;;1.30;1.30;;;7.80;99.90;;;;;;4996696;28;20392;-78
2021/10/02 01:53:44;;;;;;;1.70;1.60;;;7.80;99.90;;;;;;4974794;28;20401;-79
2021/10/02 01:56:29;;;;;;;1.87;1.77;;;7.70;99.90;;;;;;5001693;28;21024;-78
2021/10/02 01:59:13;;;;;;;2.10;1.60;;;7.80;99.90;;;;;;4958662;28;20408;-78
2021/10/02 02:01:58;;;;;;;1.52;1.35;;;7.70;99.90;;;;;;4993588;28;20404;-78
2021/10/02 02:04:42;;;;;;;1.50;1.40;;;7.70;99.90;;;;;;4990297;28;20398;-78
2021/10/02 02:07:27;;;;;;;1.77;1.67;;;7.60;99.90;;;;;;4999916;28;21202;-78
2021/10/02 02:10:12;;;;;;;1.37;1.27;;;7.60;99.90;;;;;;4958391;28;20471;-78
2021/10/02 02:12:59;;;;;;;3.15;1.85;;;7.60;99.90;;;;;;4975046;28;20538;-78
2021/10/02 02:15:44;;;;;;;1.50;1.40;;;7.60;99.90;;;;;;4997326;28;20424;-78
2021/10/02 02:18:28;;;;;;;1.33;1.30;;;7.60;99.90;;;;;;4974309;28;20419;-78
2021/10/02 02:21:12;;;;;;;1.20;1.20;;;7.60;99.90;;;;;;4961090;28;20478;-81
2021/10/02 02:23:57;;;;;;;1.33;1.23;;;7.70;99.90;;;;;;4984850;28;20455;-78
2021/10/02 02:26:41;;;;;;;1.30;1.30;;;7.70;99.90;;;;;;4973556;28;20958;-78
2021/10/02 02:29:25;;;;;;;1.40;1.30;;;7.60;99.90;;;;;;4962657;28;20415;-78
2021/10/02 02:32:10;;;;;;;1.33;1.23;;;7.80;99.90;;;;;;4974750;28;20494;-79
2021/10/02 02:34:54;;;;;;;2.45;1.70;;;7.70;99.90;;;;;;4956016;28;20453;-78
2021/10/02 02:37:39;;;;;;;1.20;1.20;;;7.70;99.90;;;;;;4980985;28;20972;-78
2021/10/02 02:40:23;;;;;;;1.55;1.45;;;7.70;99.90;;;;;;4962781;28;20472;-78
2021/10/02 02:43:08;;;;;;;1.23;1.23;;;7.70;99.90;;;;;;4956108;28;20982;-78
2021/10/02 02:45:57;;;;;;;1.70;1.30;;;7.70;99.90;;;;;;4974866;28;20400;-78
2021/10/02 02:48:48;;;;;;;1.40;1.30;;;7.70;99.90;;;;;;4959323;28;20962;-78
2021/10/02 02:51:42;;;;;;;1.40;1.30;;;7.70;99.90;;;;;;4960496;28;20921;-78
2021/10/02 02:54:39;;;;;;;1.08;1.08;;;7.70;99.90;;;;;;4944370;28;20423;-78
2021/10/02 02:57:26;;;;;;;1.50;1.40;;;7.80;99.90;;;;;;4962857;28;20927;-78
2021/10/02 03:00:13;;;;;;;1.30;1.20;;;7.80;99.90;;;;;;4985020;28;20436;-81
2021/10/02 03:03:01;;;;;;;1.20;1.20;;;7.90;99.90;;;;;;4973425;28;20396;-78
2021/10/02 03:05:46;;;;;;;1.30;1.20;;;7.90;99.90;;;;;;4968894;28;20465;-78
2021/10/02 03:08:32;;;;;;;1.13;1.10;;;7.90;99.90;;;;;;4962638;28;20977;-78
2021/10/02 03:11:20;;;;;;;1.58;1.30;;;7.90;99.90;;;;;;4975748;28;20442;-78
2021/10/02 03:14:04;;;;;;;1.27;1.23;;;7.90;99.90;;;;;;4965011;28;20962;-78
2021/10/02 03:16:50;;;;;;;1.20;1.20;;;7.90;99.90;;;;;;4962431;28;20412;-78
2021/10/02 03:19:37;;;;;;;1.05;1.05;;;7.90;99.90;;;;;;4973449;28;20479;-78
2021/10/02 03:22:22;;;;;;;0.98;0.98;;;7.90;99.90;;;;;;4956304;28;20409;-78
2021/10/02 03:25:07;;;;;;;1.20;1.20;;;8.00;99.90;;;;;;4966054;28;20483;-78
2021/10/02 03:27:53;;;;;;;1.08;1.08;;;7.90;99.90;;;;;;4960641;28;20415;-78
2021/10/02 03:30:37;;;;;;;1.50;1.40;;;7.90;99.90;;;;;;4962814;28;20416;-78
2021/10/02 03:33:24;;;;;;;1.00;1.00;;;7.90;99.90;;;;;;4945289;28;20463;-77
2021/10/02 03:36:09;;;;;;;1.10;1.10;;;7.90;99.90;;;;;;4987841;28;20412;-78
2021/10/02 03:38:53;;;;;;;1.20;1.20;;;7.90;99.90;;;;;;4946252;28;20412;-79
2021/10/02 03:41:37;;;;;;;1.20;1.10;;;7.90;99.90;;;;;;4961379;28;20424;-79
2021/10/02 03:44:22;;;;;;;1.00;1.00;;;7.90;99.90;;;;;;4972584;28;20500;-78
2021/10/02 03:47:06;;;;;;;1.35;1.27;;;7.90;99.90;;;;;;4980022;28;20410;-78
2021/10/02 03:49:50;;;;;;;1.25;1.20;;;7.90;99.90;;;;;;4974574;28;21055;-79
2021/10/02 03:52:35;;;;;;;1.15;1.15;;;7.90;99.90;;;;;;4947113;28;20470;-78
2021/10/02 03:55:19;;;;;;;1.00;1.00;;;7.90;99.90;;;;;;4975084;28;20424;-78
2021/10/02 03:58:03;;;;;;;1.33;1.30;;;7.90;99.90;;;;;;4962152;28;20399;-79
2021/10/02 04:00:48;;;;;;;1.42;1.33;;;7.80;99.90;;;;;;4988623;28;20766;-79
2021/10/02 04:03:32;;;;;;;1.00;1.00;;;7.80;99.90;;;;;;4960289;28;20943;-78
2021/10/02 04:06:16;;;;;;;1.48;1.38;;;7.80;99.90;;;;;;5003642;28;20435;-78
2021/10/02 04:09:00;;;;;;;1.27;1.20;;;7.80;99.90;;;;;;4978652;28;20411;-78
2021/10/02 04:11:44;;;;;;;1.50;1.40;;;7.80;99.90;;;;;;4967655;28;20405;-78
2021/10/02 04:14:28;;;;;;;1.30;1.20;;;7.80;99.90;;;;;;4966750;28;20466;-78
2021/10/02 04:17:12;;;;;;;1.20;1.10;;;7.70;99.90;;;;;;4961643;28;20437;-78
2021/10/02 04:19:57;;;;;;;1.40;1.30;;;7.70;99.90;;;;;;4972743;28;20421;-78
2021/10/02 04:22:41;;;;;;;1.55;1.45;;;7.70;99.90;;;;;;4954758;28;20949;-78
2021/10/02 04:25:26;;;;;;;1.40;1.30;;;7.70;99.90;;;;;;4989168;28;20459;-78
2021/10/02 04:28:10;;;;;;;1.52;1.42;;;7.70;99.90;;;;;;4977331;28;20432;-78
2021/10/02 04:30:54;;;;;;;1.55;1.45;;;7.70;99.90;;;;;;4967330;28;20420;-78
2021/10/02 04:33:38;;;;;;;1.17;1.17;;;7.70;99.90;;;;;;4979532;28;20459;-78
2021/10/02 04:36:23;;;;;;;1.35;1.27;;;7.70;99.90;;;;;;4995130;28;20516;-78
2021/10/02 04:39:07;;;;;;;1.52;1.33;;;7.70;99.90;;;;;;4981091;28;20412;-79
2021/10/02 04:41:52;;;;;;;1.10;1.10;;;7.70;99.90;;;;;;4975015;28;20398;-78
2021/10/02 04:44:36;;;;;;;1.10;1.10;;;7.60;99.90;;;;;;4990122;28;20395;-78
2021/10/02 04:47:20;;;;;;;1.10;1.10;;;7.60;99.90;;;;;;4949758;28;20891;-78
2021/10/02 04:50:05;;;;;;;1.58;1.48;;;7.60;99.90;;;;;;4976023;28;20458;-78
2021/10/02 04:52:54;;;;;;;1.60;1.50;;;7.50;99.90;;;;;;4966464;28;20433;-79
2021/10/02 04:55:42;;;;;;;1.58;1.23;;;7.50;99.90;;;;;;4982271;28;20398;-78
2021/10/02 04:58:27;;;;;;;1.08;1.08;;;7.50;99.90;;;;;;4977412;28;20575;-78
2021/10/02 05:01:11;;;;;;;1.42;1.33;;;7.50;99.90;;;;;;4966971;28;20821;-78
2021/10/02 05:03:57;;;;;;;1.27;1.27;;;7.50;99.90;;;;;;5004922;28;20443;-79
2021/10/02 05:06:42;;;;;;;1.33;1.30;;;7.60;99.90;;;;;;4998685;28;20461;-78
2021/10/02 05:09:26;;;;;;;1.27;1.20;;;7.60;99.90;;;;;;4974885;28;20412;-78
2021/10/02 05:12:11;;;;;;;1.40;1.30;;;7.70;99.90;;;;;;4978107;28;20478;-78
2021/10/02 05:14:55;;;;;;;1.00;1.00;;;7.60;99.90;;;;;;4981640;28;20448;-78
2021/10/02 05:17:39;;;;;;;1.40;1.30;;;7.70;99.90;;;;;;4963049;28;20408;-78
2021/10/02 05:20:24;;;;;;;1.73;1.55;;;7.70;99.90;;;;;;4957897;28;20397;-79
2021/10/02 05:23:08;;;;;;;1.42;1.33;;;7.70;99.90;;;;;;4958815;28;24307;-78
2021/10/02 05:25:54;;;;;;;1.33;1.33;;;7.90;99.90;;;;;;4964347;28;20918;-78
2021/10/02 05:28:38;;;;;;;1.42;1.33;;;7.90;99.90;;;;;;4973784;28;20493;-81
2021/10/02 05:31:22;;;;;;;1.50;1.40;;;8.00;99.90;;;;;;4973279;28;20451;-81
2021/10/02 05:34:09;;;;;;;1.67;1.58;;;8.10;99.90;;;;;;4992519;28;20407;-81
2021/10/02 05:36:53;;;;;;;1.65;1.55;;;8.20;99.90;;;;;;4981609;28;20460;-81
2021/10/02 05:39:37;;;;;;;1.50;1.40;;;8.30;99.90;;;;;;4961853;28;20790;-81
2021/10/02 05:42:21;;;;;;;1.60;1.50;;;8.40;99.90;;;;;;4977959;28;20404;-80
2021/10/02 05:45:06;;;;;;;1.60;1.50;;;8.50;99.90;;;;;;4987659;28;20465;-78
2021/10/02 05:47:50;;;;;;;1.55;1.45;;;8.60;99.90;;;;;;4958006;28;20496;-78
2021/10/02 05:50:34;;;;;;;1.50;1.40;;;8.70;99.90;;;;;;4977295;28;20933;-78
2021/10/02 05:53:18;;;;;;;1.65;1.40;;;8.80;99.90;;;;;;4962273;28;20412;-78
2021/10/02 05:56:03;;;;;;;1.77;1.67;;;8.90;99.90;;;;;;4986502;28;20458;-78
2021/10/02 05:58:48;;;;;;;1.42;1.33;;;9.00;99.90;;;;;;4973931;28;20424;-78
2021/10/02 06:01:32;;;;;;;2.25;1.60;;;9.10;99.90;;;;;;4969145;28;20952;-78
2021/10/02 06:04:17;;;;;;;1.60;1.50;;;9.20;99.90;;;;;;4961740;28;20830;-79
2021/10/02 06:07:01;;;;;;;1.65;1.55;;;9.30;99.90;;;;;;4978793;28;20439;-79
2021/10/02 06:09:45;;;;;;;1.50;1.40;;;9.40;99.90;;;;;;4969487;28;20420;-78
2021/10/02 06:12:30;;;;;;;1.95;1.83;;;9.40;99.90;;;;;;4977745;28;20428;-79
2021/10/02 06:15:14;;;;;;;2.17;1.90;;;9.50;99.90;;;;;;4977137;28;20424;-78
2021/10/02 06:17:58;;;;;;;1.80;1.70;;;9.60;99.90;;;;;;4973099;28;20396;-80
2021/10/02 06:20:43;;;;;;;2.10;1.95;;;9.70;99.90;;;;;;4949099;28;20463;-80
2021/10/02 06:23:27;;;;;;;1.70;1.60;;;9.80;99.90;;;;;;4951549;28;20395;-79
2021/10/02 06:26:12;;;;;;;1.60;1.50;;;9.90;99.90;;;;;;4985513;28;20395;-80
2021/10/02 06:28:56;;;;;;;1.70;1.60;;;10.10;99.90;;;;;;4978052;28;20831;-80
2021/10/02 06:31:40;;;;;;;1.75;1.60;;;10.10;99.90;;;;;;4963035;28;20420;-79
2021/10/02 06:34:27;;;;;;;3.30;1.77;;;10.30;99.90;;;;;;4972388;28;20439;-80
2021/10/02 06:37:11;;;;;;;1.50;1.40;;;10.30;99.90;;;;;;4997121;28;20403;-80
2021/10/02 06:39:55;;;;;;;2.77;1.80;;;10.40;99.90;;;;;;4964096;28;20455;-79
2021/10/02 06:42:39;;;;;;;1.70;1.60;;;10.50;99.90;;;;;;4975814;28;20416;-79
2021/10/02 06:45:24;;;;;;;2.45;1.88;;;10.70;99.90;;;;;;4959358;28;20432;-79
2021/10/02 06:48:08;;;;;;;1.85;1.70;;;10.80;99.90;;;;;;4976014;28;20397;-79
2021/10/02 06:50:52;;;;;;;1.75;1.65;;;10.90;99.90;;;;;;4951924;28;20449;-79
2021/10/02 06:53:36;;;;;;;1.70;1.60;;;11.00;99.90;;;;;;4993342;28;20840;-78
2021/10/02 06:56:21;;;;;;;1.70;1.60;;;11.10;99.90;;;;;;4966901;28;20443;-79
2021/10/02 06:59:05;;;;;;;1.92;1.63;;;11.20;99.90;;;;;;4970332;28;21063;-79
2021/10/02 07:01:50;;;;;;;2.10;1.83;;;11.40;99.90;;;;;;4964006;28;20479;-79
2021/10/02 07:04:34;;;;;;;2.10;1.90;;;11.50;99.90;;;;;;4963236;28;20419;-79
2021/10/02 07:07:18;;;;;;;2.00;1.80;;;11.60;99.90;;;;;;4950421;28;20424;-79
2021/10/02 07:10:04;;;;;;;1.80;1.70;;;11.70;99.90;;;;;;5004307;28;20415;-79
2021/10/02 07:12:48;;;;;;;2.10;1.83;;;11.80;99.90;;;;;;4975911;28;20483;-79
2021/10/02 07:15:33;;;;;;;2.00;1.90;;;11.90;99.90;;;;;;4949624;28;20510;-79
2021/10/02 07:18:17;;;;;;;2.70;1.95;;;12.10;99.90;;;;;;4961990;28;20412;-79
2021/10/02 07:21:02;;;;;;;2.10;2.00;;;12.20;99.90;;;;;;4989838;28;20427;-78
2021/10/02 07:23:46;;;;;;;1.98;1.80;;;12.30;99.90;;;;;;4954169;28;20403;-79
2021/10/02 07:26:30;;;;;;;3.70;1.90;;;12.50;99.90;;;;;;4972728;28;20410;-79
2021/10/02 07:29:14;;;;;;;4.80;1.98;;;12.50;99.90;;;;;;4978214;28;20407;-78
2021/10/02 07:31:59;;;;;;;2.80;2.42;;;12.70;99.90;;;;;;4973426;28;20400;-78
2021/10/02 07:34:43;;;;;;;5.75;3.67;;;12.80;99.90;;;;;;4987153;28;20404;-78
2021/10/02 07:37:27;;;;;;;1.75;1.63;;;12.80;99.90;;;;;;4972078;28;20518;-78
2021/10/02 07:40:12;;;;;;;2.45;2.03;;;12.90;99.90;;;;;;4971531;28;20994;-78
2021/10/02 07:42:56;;;;;;;2.70;2.30;;;13.00;99.90;;;;;;4986187;28;20428;-78
2021/10/02 07:45:41;;;;;;;1.80;1.70;;;13.10;99.90;;;;;;4986353;28;20451;-79
2021/10/02 07:48:25;;;;;;;1.83;1.73;;;13.10;99.90;;;;;;4974616;28;20424;-78
2021/10/02 07:51:10;;;;;;;1.98;1.77;;;13.20;99.90;;;;;;4965816;28;20912;-78
2021/10/02 07:53:54;;;;;;;2.15;1.75;;;13.10;99.90;;;;;;4966642;28;20416;-79
2021/10/02 07:56:39;;;;;;;2.03;1.92;;;13.20;99.90;;;;;;4984464;28;20487;-78
2021/10/02 07:59:23;;;;;;;2.50;2.00;;;13.20;99.90;;;;;;4958974;28;20490;-78
2021/10/02 08:02:08;;;;;;;2.30;1.83;;;13.30;99.90;;;;;;4976934;28;20464;-78
2021/10/02 08:04:52;;;;;;;2.72;2.10;;;13.40;99.90;;;;;;4976169;28;20425;-78
2021/10/02 08:07:43;;;;;;;1.90;1.80;;;13.50;99.90;;;;;;4964357;28;20419;-77
2021/10/02 08:10:29;;;;;;;2.55;2.03;;;13.70;99.90;;;;;;4973899;28;20515;-78
2021/10/02 08:13:13;;;;;;;2.25;2.03;;;13.90;99.90;;;;;;5002020;28;20412;-78
2021/10/02 08:15:59;;;;;;;1.87;1.77;;;14.00;99.90;;;;;;4973804;28;21156;-79
2021/10/02 08:18:44;;;;;;;2.05;1.73;;;14.20;99.90;;;;;;4964760;28;20846;-78
2021/10/02 08:21:29;;;;;;;2.03;1.92;;;14.40;99.90;;;;;;4984303;28;20407;-81
2021/10/02 08:24:13;;;;;;;1.95;1.75;;;14.60;99.90;;;;;;4977669;28;20440;-78
2021/10/02 08:26:58;;;;;;;1.80;1.70;;;14.80;99.90;;;;;;4966089;28;20397;-80
2021/10/02 08:29:42;;;;;;;1.88;1.77;;;15.00;99.90;;;;;;4955207;28;20435;-80
2021/10/02 08:32:27;;;;;;;1.63;1.52;;;15.10;99.90;;;;;;4962985;28;20502;-78
2021/10/02 08:35:11;;;;;;;1.58;1.48;;;15.20;99.90;;;;;;4970389;28;20829;-78
2021/10/02 08:37:56;;;;;;;1.60;1.40;;;15.30;99.90;;;;;;4961093;28;20451;-78
2021/10/02 08:40:40;;;;;;;1.95;1.85;;;15.40;99.90;;;;;;4963151;28;20870;-78
2021/10/02 08:43:25;;;;;;;1.63;1.53;;;15.40;99.90;;;;;;4957100;28;20460;-80
2021/10/02 08:46:09;;;;;;;1.70;1.60;;;15.60;99.90;;;;;;4961012;28;20428;-78
2021/10/02 08:49:02;;;;;;;1.60;1.50;;;15.70;99.90;;;;;;4976124;28;20415;-78
2021/10/02 08:51:48;;;;;;;1.90;1.73;;;15.90;99.90;;;;;;4990247;28;20466;-78
2021/10/02 08:54:45;;;;;;;1.67;1.58;;;16.10;99.90;;;;;;4966272;28;20436;-79
2021/10/02 08:57:30;;;;;;;4.40;1.90;;;16.40;99.90;;;;;;4959536;28;20962;-78
2021/10/02 09:00:17;;;;;;;1.70;1.60;;;16.70;99.90;;;;;;4989229;28;20815;-78
2021/10/02 09:03:01;;;;;;;1.75;1.60;;;16.90;99.90;;;;;;4981440;28;20431;-80
2021/10/02 09:05:45;;;;;;;2.83;1.83;;;17.00;99.90;;;;;;4975703;28;20415;-79
2021/10/02 09:08:29;;;;;;;2.60;2.40;;;17.10;99.90;;;;;;4972336;28;20428;-80
2021/10/02 09:11:13;;;;;;;2.55;1.67;;;17.10;99.90;;;;;;4996207;28;20784;-78
2021/10/02 09:13:58;;;;;;;1.63;1.52;;;17.20;99.90;;;;;;5003638;28;20392;-79
2021/10/02 09:16:42;;;;;;;4.13;1.95;;;17.20;99.90;;;;;;4963634;28;20420;-79
2021/10/02 09:19:26;;;;;;;2.20;2.00;;;17.20;99.90;;;;;;4996982;28;21125;-79
2021/10/02 09:22:11;;;;;;;4.10;1.48;;;17.30;99.90;;;;;;4985592;28;20824;-79
2021/10/02 09:24:58;;;;;;;1.70;1.60;;;17.30;99.90;;;;;;4990062;28;20412;-79
2021/10/02 09:27:42;;;;;;;1.60;1.50;;;17.30;99.90;;;;;;4962211;28;20416;-79
2021/10/02 09:30:26;;;;;;;1.63;1.52;;;17.40;99.90;;;;;;4936356;28;20425;-79
2021/10/02 09:33:17;;;;;;;2.17;1.63;;;17.40;99.90;;;;;;4971952;28;20408;-79
2021/10/02 09:36:01;;;;;;;2.60;2.40;;;17.50;99.90;;;;;;4968988;28;20457;-79
2021/10/02 09:38:48;;;;;;;2.40;1.98;;;17.50;99.90;;;;;;4948990;28;20407;-79
2021/10/02 09:41:33;;;;;;;2.03;1.92;;;17.60;99.90;;;;;;4965155;28;21121;-79
2021/10/02 09:44:22;;;;;;;1.77;1.67;;;17.70;99.90;;;;;;4962064;28;20439;-79
2021/10/02 09:47:13;;;;;;;2.13;1.90;;;17.70;99.90;;;;;;4961958;28;20486;-79
2021/10/02 09:49:58;;;;;;;1.63;1.52;;;17.80;99.90;;;;;;4985800;28;20473;-79
2021/10/02 09:52:44;;;;;;;1.93;1.73;;;17.90;99.90;;;;;;4956082;28;20448;-79
2021/10/02 09:55:30;;;;;;;1.75;1.45;;;18.00;99.90;;;;;;4963409;28;20435;-79
2021/10/02 09:58:17;;;;;;;1.70;1.52;;;18.00;99.90;;;;;;4976000;28;20447;-79
2021/10/02 10:01:01;;;;;;;1.50;1.40;;;18.10;99.90;;;;;;4976931;28;20404;-79
2021/10/02 10:03:47;;;;;;;1.48;1.38;;;18.20;99.90;;;;;;4956956;28;20999;-79
2021/10/02 10:06:31;;;;;;;1.50;1.40;;;18.30;99.90;;;;;;5006900;28;20396;-79
2021/10/02 10:09:16;;;;;;;3.40;2.95;;;18.30;99.90;;;;;;4977295;28;21008;-79
2021/10/02 10:12:00;;;;;;;1.90;1.58;;;18.50;99.90;;;;;;4990765;28;20383;-78
2021/10/02 10:14:44;;;;;;;1.33;1.23;;;18.60;99.90;;;;;;4992374;28;20476;-79
2021/10/02 10:17:30;;;;;;;1.33;1.23;;;18.70;99.90;;;;;;4976750;28;20400;-81
2021/10/02 10:20:15;;;;;;;1.50;1.40;;;18.80;99.90;;;;;;4951062;28;20407;-80
2021/10/02 10:22:59;;;;;;;1.33;1.23;;;19.10;99.90;;;;;;4980343;28;20420;-80
2021/10/02 10:25:48;;;;;;;2.03;1.52;;;19.30;99.90;;;;;;4964644;28;20995;-79
2021/10/02 10:28:40;;;;;;;1.58;1.45;;;19.50;99.90;;;;;;4987245;28;20466;-79
2021/10/02 10:31:26;;;;;;;1.50;1.40;;;19.60;99.90;;;;;;4988627;28;20408;-79
2021/10/02 10:34:10;;;;;;;1.27;1.27;;;19.80;99.90;;;;;;4956632;28;20403;-79
2021/10/02 10:36:54;;;;;;;1.60;1.50;;;20.10;99.90;;;;;;4978499;28;20452;-79
2021/10/02 10:39:39;;;;;;;1.30;1.30;;;20.30;99.90;;;;;;4947927;28;20536;-80
2021/10/02 10:42:27;;;;;;;1.65;1.40;;;20.50;99.90;;;;;;4948474;28;20451;-78
2021/10/02 10:45:11;;;;;;;1.20;1.20;;;20.70;99.90;;;;;;4986761;28;21134;-79
2021/10/02 10:47:56;;;;;;;1.33;1.23;;;21.00;99.90;;;;;;4975483;28;20526;-79
2021/10/02 10:50:42;;;;;;;1.50;1.40;;;21.10;99.90;;;;;;4973975;28;20407;-79
2021/10/02 10:53:34;;;;;;;1.50;1.40;;;20.90;99.90;;;;;;4977692;28;20404;-78
2021/10/02 10:56:37;;;;;;;1.50;1.40;;;21.00;99.90;;;;;;4980233;28;20430;-79
2021/10/02 10:59:22;;;;;;;1.52;1.42;;;21.00;99.90;;;;;;4987926;28;20415;-80
2021/10/02 11:02:07;;;;;;;1.80;1.70;;;21.10;99.90;;;;;;4962987;28;20590;-79
2021/10/02 11:04:51;;;;;;;2.07;1.37;;;20.90;99.90;;;;;;4947639;28;20424;-79
2021/10/02 11:07:51;;;;;;;1.77;1.20;;;20.80;99.90;;;;;;4966728;28;21138;-80
2021/10/02 11:10:41;;;;;;;1.42;1.33;;;20.70;99.90;;;;;;4972838;28;20462;-79
2021/10/02 11:13:28;;;;;;;1.58;1.20;;;20.70;99.90;;;;;;4988594;28;20396;-80
2021/10/02 11:16:35;;;;;;;1.33;1.17;;;20.80;99.90;;;;;;4990486;28;20424;-79
2021/10/02 11:19:39;;;;;;;1.30;1.20;;;21.00;99.90;;;;;;4943156;28;20412;-80
2021/10/02 11:23:05;;;;;;;1.10;1.10;;;21.40;99.90;;;;;;4972523;28;20420;-80
2021/10/02 11:26:23;;;;;;;1.38;1.27;;;21.80;99.90;;;;;;5004034;28;20788;-80
2021/10/02 11:29:14;;;;;;;1.42;1.17;;;22.10;99.90;;;;;;4961758;28;20443;-80
2021/10/02 11:32:19;;;;;;;1.17;1.10;;;22.60;99.90;;;;;;4969427;28;20499;-80
2021/10/02 11:35:22;;;;;;;1.30;1.20;;;22.80;99.90;;;;;;4999748;28;20419;-80
2021/10/02 11:38:07;;;;;;;1.52;1.38;;;23.10;99.90;;;;;;5005392;28;20419;-80
2021/10/02 11:40:51;;;;;;;1.00;1.00;;;23.30;99.90;;;;;;4962123;28;20466;-80
2021/10/02 11:43:36;;;;;;;0.88;0.88;;;23.50;99.90;;;;;;4979010;28;20451;-80
2021/10/02 11:46:24;;;;;;;0.98;0.98;;;23.50;99.90;;;;;;4974822;28;20475;-80
2021/10/02 11:49:19;;;;;;;1.65;1.23;;;23.80;99.90;;;;;;4965299;28;20419;-80
2021/10/02 11:52:12;;;;;;;1.23;1.13;;;24.00;99.90;;;;;;4960270;28;20490;-80
2021/10/02 11:54:56;;;;;;;1.35;1.05;;;23.90;99.90;;;;;;4975472;28;20404;-80
2021/10/02 11:58:07;;;;;;;0.80;0.80;;;23.90;99.90;;;;;;4980308;28;20417;-80
2021/10/02 12:00:54;;;;;;;1.00;1.00;;;24.20;99.90;;;;;;4985673;28;20491;-80
2021/10/02 12:03:39;;;;;;;1.33;1.00;;;24.30;99.90;;;;;;4975194;28;20412;-80
2021/10/02 12:06:23;;;;;;;0.98;0.98;;;24.00;99.90;;;;;;4979104;28;20423;-79
2021/10/02 12:09:15;;;;;;;1.05;1.05;;;24.10;99.90;;;;;;4979559;28;20404;-79
2021/10/02 12:11:59;;;;;;;1.30;1.20;;;23.90;99.90;;;;;;4997684;28;20455;-80
2021/10/02 12:14:43;;;;;;;0.85;0.85;;;23.70;99.90;;;;;;4964984;28;20958;-80
2021/10/02 12:17:27;;;;;;;1.10;1.05;;;23.40;99.90;;;;;;4972266;28;20412;-80
2021/10/02 12:20:11;;;;;;;1.48;1.00;;;23.10;99.90;;;;;;4997675;28;20463;-80
2021/10/02 12:23:06;;;;;;;0.90;0.90;;;23.30;99.90;;;;;;4991961;28;20902;-80
2021/10/02 12:26:01;;;;;;;1.20;1.10;;;23.50;99.90;;;;;;4977566;28;20411;-80
2021/10/02 12:28:45;;;;;;;0.97;0.97;;;23.50;99.90;;;;;;4958822;28;20463;-80
2021/10/02 12:31:44;;;;;;;0.90;0.90;;;23.60;99.90;;;;;;4990660;28;20412;-80
2021/10/02 12:34:33;;;;;;;1.17;1.10;;;23.30;99.90;;;;;;4967030;28;20408;-80
2021/10/02 12:37:18;;;;;;;2.72;2.22;;;23.40;99.90;;;;;;4972142;28;20411;-79
2021/10/02 12:40:12;;;;;;;0.93;0.93;;;23.30;99.90;;;;;;4992220;28;20431;-80
2021/10/02 12:42:58;;;;;;;3.30;1.30;;;23.00;99.90;;;;;;4956037;28;20486;-79
2021/10/02 12:45:43;;;;;;;1.25;1.15;;;23.10;99.90;;;;;;4992634;28;20398;-80
2021/10/02 12:48:27;;;;;;;1.00;1.00;;;23.10;99.90;;;;;;4996131;28;20439;-80
2021/10/02 12:51:12;;;;;;;2.45;1.10;;;23.10;99.90;;;;;;4972364;28;20411;-79
2021/10/02 12:53:57;;;;;;;1.17;1.17;;;23.20;99.90;;;;;;4950073;28;20432;-80
2021/10/02 12:56:55;;;;;;;1.10;1.10;;;23.00;99.90;;;;;;4983383;28;20474;-80
2021/10/02 12:59:59;;;;;;;1.15;1.08;;;23.10;99.90;;;;;;4961578;28;20431;-80
2021/10/02 13:02:49;;;;;;;0.90;0.90;;;23.20;99.90;;;;;;4996656;28;20419;-80
2021/10/02 13:05:35;;;;;;;1.23;1.13;;;23.20;99.90;;;;;;4967485;28;20930;-79
2021/10/02 13:08:19;;;;;;;1.23;1.13;;;23.20;99.90;;;;;;4963759;28;20892;-81
2021/10/02 13:11:03;;;;;;;1.00;1.00;;;23.00;99.90;;;;;;4961886;28;20455;-80
2021/10/02 13:13:48;;;;;;;1.20;1.10;;;22.80;99.90;;;;;;4958795;28;20496;-81
2021/10/02 13:16:32;;;;;;;1.23;1.00;;;22.70;99.90;;;;;;4991970;28;20439;-81
2021/10/02 13:19:27;;;;;;;1.33;1.08;;;22.70;99.90;;;;;;4966484;28;20394;-81
2021/10/02 13:22:20;;;;;;;0.80;0.80;;;22.60;99.90;;;;;;4973003;28;20792;-80
2021/10/02 13:25:13;;;;;;;1.00;1.00;;;22.40;99.90;;;;;;4997899;28;20453;-81
2021/10/02 13:27:58;;;;;;;2.30;1.00;;;22.50;99.90;;;;;;5003004;28;20410;-81
2021/10/02 13:30:44;;;;;;;1.20;1.10;;;22.50;99.90;;;;;;5016399;28;20414;-81
2021/10/02 13:33:28;;;;;;;1.35;1.20;;;22.40;99.90;;;;;;4993806;28;21038;-81
2021/10/02 13:36:30;;;;;;;0.98;0.98;;;22.40;99.90;;;;;;4993224;28;20858;-80
2021/10/02 13:39:16;;;;;;;0.90;0.90;;;22.50;99.90;;;;;;5010734;28;20428;-81
2021/10/02 13:42:07;;;;;;;0.75;0.75;;;22.60;99.90;;;;;;5001957;28;20853;-81
2021/10/02 13:44:53;;;;;;;1.20;1.13;;;22.70;99.90;;;;;;4950200;28;20512;-81
2021/10/02 13:47:37;;;;;;;1.00;1.00;;;22.80;99.90;;;;;;5005137;28;20470;-81
2021/10/02 13:50:22;;;;;;;1.08;1.05;;;23.00;99.90;;;;;;4993960;28;20409;-81
2021/10/02 13:53:06;;;;;;;1.10;1.00;;;23.00;99.90;;;;;;4978634;28;20459;-79
2021/10/02 13:55:51;;;;;;;0.82;0.82;;;22.90;99.90;;;;;;4961682;28;20420;-81
2021/10/02 13:58:35;;;;;;;0.90;0.90;;;22.80;99.90;;;;;;4978055;28;20922;-81
2021/10/02 14:01:20;;;;;;;1.13;1.02;;;22.70;99.90;;;;;;4969051;28;20413;-81
2021/10/02 14:04:04;;;;;;;1.50;1.02;;;22.70;99.90;;;;;;4970904;28;21028;-80
2021/10/02 14:06:49;;;;;;;0.73;0.73;;;22.60;99.90;;;;;;5003584;28;20428;-81
2021/10/02 14:09:33;;;;;;;1.17;1.08;;;22.50;99.90;;;;;;4990540;28;20879;-81
2021/10/02 14:12:18;;;;;;;1.10;1.00;;;22.50;99.90;;;;;;4985581;28;20434;-80
2021/10/02 14:15:03;;;;;;;1.00;0.97;;;22.50;99.90;;;;;;4975700;28;21067;-80
2021/10/02 14:17:48;;;;;;;1.23;1.20;;;22.40;99.90;;;;;;4979255;28;20418;-80
2021/10/02 14:20:33;;;;;;;1.98;1.88;;;22.20;99.90;;;;;;4970745;28;20416;-80
2021/10/02 14:23:17;;;;;;;1.58;1.48;;;22.10;99.90;;;;;;4968606;28;20411;-78
2021/10/02 14:26:01;;;;;;;1.70;1.15;;;22.00;99.90;;;;;;4979597;28;20467;-79
2021/10/02 14:28:45;;;;;;;1.45;1.27;;;21.80;99.90;;;;;;4985221;28;20423;-79
2021/10/02 14:31:30;;;;;;;1.70;1.60;;;21.70;99.90;;;;;;4990645;28;20412;-80
2021/10/02 14:34:16;;;;;;;1.33;1.23;;;21.60;99.90;;;;;;4981680;28;20469;-80
2021/10/02 14:37:00;;;;;;;1.20;1.10;;;21.50;99.90;;;;;;4998675;28;20404;-81
2021/10/02 14:39:46;;;;;;;1.50;1.40;;;21.40;99.90;;;;;;4967673;28;20921;-81
2021/10/02 14:42:36;;;;;;;1.30;1.20;;;21.40;99.90;;;;;;4974013;28;20412;-81
2021/10/02 14:45:42;;;;;;;1.58;1.48;;;21.30;99.90;;;;;;5020843;28;20416;-81
2021/10/02 14:48:28;;;;;;;2.13;1.27;;;21.20;99.90;;;;;;4984713;28;20545;-81
2021/10/02 14:51:27;;;;;;;1.35;1.20;;;21.10;99.90;;;;;;4991810;28;20482;-81
2021/10/02 14:54:18;;;;;;;1.80;1.38;;;20.90;99.90;;;;;;4980201;28;20412;-81
2021/10/02 14:57:17;;;;;;;2.45;1.13;;;20.90;99.90;;;;;;4967286;28;20494;-81
2021/10/02 15:00:14;;;;;;;1.03;1.03;;;21.00;99.90;;;;;;4958492;28;20420;-82
2021/10/02 15:03:01;;;;;;;1.33;1.23;;;20.90;99.90;;;;;;5034085;28;20411;-81
2021/10/02 15:06:02;;;;;;;1.45;1.35;;;20.70;99.90;;;;;;4999248;28;20404;-81
2021/10/02 15:09:05;;;;;;;1.02;1.02;;;20.60;99.90;;;;;;4992731;28;20423;-81
2021/10/02 15:12:20;;;;;;;1.75;1.65;;;20.60;99.90;;;;;;5003190;28;20411;-81
2021/10/02 15:15:16;;;;;;;1.50;1.40;;;20.60;99.90;;;;;;5000400;28;21032;-81
2021/10/02 15:18:36;;;;;;;1.40;1.30;;;20.60;99.90;;;;;;4978615;28;20455;-81
2021/10/02 15:21:36;;;;;;;1.50;1.20;;;20.40;99.90;;;;;;4966615;28;20463;-81
2021/10/02 15:24:44;;;;;;;1.17;1.13;;;20.40;99.90;;;;;;4936756;28;20416;-81
2021/10/02 15:27:39;;;;;;;1.00;1.00;;;20.30;99.90;;;;;;4950875;28;20429;-79
2021/10/02 15:30:52;;;;;;;1.50;1.40;;;20.30;99.90;;;;;;4961289;28;20530;-81